EW1379 Weather Reports


Display with metric or nautical units.
time (UTC)temp
F
wind
direction
speed
MPH
gust
MPH
rain 1hr
in
rain 24hr
in
rain mn
in
humidity
%
barometer
mb
20240225230341 44 191 1.0 3.0 0.00 0.00 0.00 30 1009.5
20240225225858 45 191 2.0 5.0 0.00 0.00 0.00 30 1009.5
20240225225343 45 191 3.0 5.0 0.00 0.00 0.00 28 1009.6
20240225224828 46 190 2.0 5.0 0.00 0.00 0.00 29 1009.6
20240225224337 46 190 3.0 6.0 0.00 0.00 0.00 27 1009.5
20240225223856 46 194 3.0 6.0 0.00 0.00 0.00 26 1009.5
20240225223332 46 193 2.0 6.0 0.00 0.00 0.00 26 1009.6
20240225222830 47 192 4.0 7.0 0.00 0.00 0.00 26 1009.6
20240225222331 47 193 4.0 7.0 0.00 0.00 0.00 27 1009.6
20240225221850 47 192 2.0 7.0 0.00 0.00 0.00 26 1009.7
20240225221358 47 204 3.0 7.0 0.00 0.00 0.00 27 1009.7
20240225220834 48 200 2.0 7.0 0.00 0.00 0.00 28 1009.7
20240225220329 48 194 4.0 7.0 0.00 0.00 0.00 25 1009.6
20240225215829 48 194 5.0 9.0 0.00 0.00 0.00 25 1009.5
20240225215329 48 191 2.0 7.0 0.00 0.00 0.00 26 1009.5
20240225214843 48 189 4.0 7.0 0.00 0.00 0.00 26 1009.5
20240225214348 48 171 4.0 8.0 0.00 0.00 0.00 26 1009.6
20240225213846 48 202 4.0 8.0 0.00 0.00 0.00 26 1009.5
20240225213402 48 195 4.0 7.0 0.00 0.00 0.00 25 1009.6
20240225212842 48 192 3.0 7.0 0.00 0.00 0.00 26 1009.8
20240225212337 47 212 4.0 7.0 0.00 0.00 0.00 25 1009.8
20240225211841 47 194 3.0 6.0 0.00 0.00 0.00 27 1009.9
20240225211329 47 190 3.0 7.0 0.00 0.00 0.00 26 1009.9
20240225210850 48 186 3.0 7.0 0.00 0.00 0.00 26 1010.0
20240225210411 48 199 3.0 11.0 0.00 0.00 0.00 27 1010.1
20240225205837 48 202 6.0 11.0 0.00 0.00 0.00 25 1010.2
20240225205333 48 188 4.0 11.0 0.00 0.00 0.00 25 1010.3
20240225204834 48 221 5.0 11.0 0.00 0.00 0.00 25 1010.4
20240225204341 48 197 7.0 11.0 0.00 0.00 0.00 25 1010.4
20240225203838 48 187 5.0 7.0 0.00 0.00 0.00 26 1010.4
20240225203342 49 254 3.0 11.0 0.00 0.00 0.00 28 1010.4
20240225202839 49 226 5.0 11.0 0.00 0.00 0.00 27 1010.4
20240225202331 49 215 5.0 10.0 0.00 0.00 0.00 26 1010.4
20240225201833 48 224 4.0 12.0 0.00 0.00 0.00 27 1010.5
20240225201333 48 198 4.0 12.0 0.00 0.00 0.00 29 1010.6
20240225200830 48 196 6.0 11.0 0.00 0.00 0.00 27 1010.8
20240225200328 48 192 5.0 10.0 0.00 0.00 0.00 27 1011.0
20240225195849 48 196 4.0 13.0 0.00 0.00 0.00 29 1010.9
20240225195338 48 191 4.0 13.0 0.00 0.00 0.00 26 1011.0
20240225194900 47 175 5.0 11.0 0.00 0.00 0.00 28 1011.0
20240225194329 47 166 5.0 13.0 0.00 0.00 0.00 28 1011.0
20240225193828 47 240 7.0 13.0 0.00 0.00 0.00 26 1011.2
20240225193350 47 196 5.0 10.0 0.00 0.00 0.00 27 1011.3
20240225192827 46 196 5.0 15.0 0.00 0.00 0.00 28 1011.3
20240225192327 46 202 7.0 15.0 0.00 0.00 0.00 28 1011.4
20240225191826 46 197 8.0 14.0 0.00 0.00 0.00 27 1011.4
20240225191344 46 194 3.0 10.0 0.00 0.00 0.00 30 1011.5
20240225190841 46 189 4.0 12.0 0.00 0.00 0.00 29 1011.6
20240225190337 46 199 6.0 12.0 0.00 0.00 0.00 30 1011.6
20240225185837 45 184 5.0 10.0 0.00 0.00 0.00 28 1011.7
20240225185337 45 200 6.0 12.0 0.00 0.00 0.00 28 1011.8
20240225184834 45 205 6.0 16.0 0.00 0.00 0.00 27 1011.9
20240225184332 46 173 7.0 15.0 0.00 0.00 0.00 27 1012.0
20240225183847 46 192 4.0 8.0 0.00 0.00 0.00 31 1012.0
20240225183344 46 191 4.0 7.0 0.00 0.00 0.00 29 1012.1
20240225182859 46 210 4.0 11.0 0.00 0.00 0.00 30 1012.2
20240225182336 46 200 5.0 11.0 0.00 0.00 0.00 31 1012.3
20240225181831 45 209 4.0 7.0 0.00 0.00 0.00 31 1012.3
20240225181327 44 186 4.0 9.0 0.00 0.00 0.00 32 1012.4
20240225180846 44 202 5.0 13.0 0.00 0.00 0.00 31 1012.5
20240225180344 44 190 6.0 13.0 0.00 0.00 0.00 31 1012.6
20240225175903 44 198 4.0 9.0 0.00 0.00 0.00 33 1012.7
20240225175342 44 193 3.0 9.0 0.00 0.00 0.00 33 1012.8
20240225174841 44 222 3.0 9.0 0.00 0.00 0.00 33 1012.8
20240225174333 44 178 5.0 9.0 0.00 0.00 0.00 32 1012.8
20240225173841 44 153 3.0 6.0 0.00 0.00 0.00 33 1012.9
20240225173338 43 184 4.0 9.0 0.00 0.00 0.00 33 1013.0
20240225172857 43 236 4.0 9.0 0.00 0.00 0.00 33 1013.3
20240225172345 43 198 4.0 11.0 0.00 0.00 0.00 32 1013.4
20240225171905 43 174 6.0 11.0 0.00 0.00 0.00 30 1013.5
20240225171345 43 182 4.0 7.0 0.00 0.00 0.00 34 1013.6
20240225170904 42 232 2.0 12.0 0.00 0.00 0.00 36 1013.7
20240225170343 41 201 7.0 12.0 0.00 0.00 0.00 34 1013.8
20240225165850 41 168 4.0 7.0 0.00 0.00 0.00 36 1014.0
20240225165329 40 196 4.0 7.0 0.00 0.00 0.00 40 1014.1
20240225164839 40 207 4.0 8.0 0.00 0.00 0.00 41 1014.3
20240225164419 39 177 4.0 8.0 0.00 0.00 0.00 40 1014.3
20240225163839 39 180 4.0 12.0 0.00 0.00 0.00 41 1014.4
20240225163334 39 194 6.0 12.0 0.00 0.00 0.00 41 1014.6
20240225162833 38 165 4.0 8.0 0.00 0.00 0.00 42 1014.6
20240225162335 38 182 4.0 10.0 0.00 0.00 0.00 45 1014.7
20240225161834 37 190 5.0 10.0 0.00 0.00 0.00 46 1014.8
20240225161335 37 153 4.0 10.0 0.00 0.00 0.00 48 1014.8
20240225160837 37 192 5.0 8.0 0.00 0.00 0.00 46 1014.9
20240225160356 37 136 3.0 9.0 0.00 0.00 0.00 50 1015.1
20240225155845 36 173 4.0 9.0 0.00 0.00 0.00 50 1015.0
20240225155332 36 173 3.0 7.0 0.00 0.00 0.00 51 1015.1
20240225154858 35 148 3.0 8.0 0.00 0.00 0.00 53 1015.2
20240225154332 35 132 5.0 8.0 0.00 0.00 0.00 56 1015.3
20240225153850 34 161 3.0 10.0 0.00 0.00 0.00 55 1015.4
20240225153409 34 134 6.0 10.0 0.00 0.00 0.00 56 1015.4
20240225152837 33 124 6.0 11.0 0.00 0.00 0.00 56 1015.5
20240225152332 33 161 6.0 11.0 0.00 0.00 0.00 56 1015.5
20240225151836 33 146 4.0 8.0 0.00 0.00 0.00 58 1015.6
20240225151334 32 175 4.0 9.0 0.00 0.00 0.00 59 1015.7
20240225150837 32 153 6.0 9.0 0.00 0.00 0.00 60 1015.8
20240225150359 32 144 5.0 10.0 0.00 0.00 0.00 60 1016.0
20240225145841 31 146 5.0 9.0 0.00 0.00 0.00 61 1016.1
20240225145337 31 169 5.0 9.0 0.00 0.00 0.00 61 1016.3
20240225144920 31 142 5.0 8.0 0.00 0.00 0.00 61 1016.2
20240225144340 31 182 4.0 7.0 0.00 0.00 0.00 61 1016.3
20240225143835 31 199 5.0 8.0 0.00 0.00 0.00 62 1016.4
20240225143331 30 143 4.0 8.0 0.00 0.00 0.00 64 1016.4
20240225142831 30 126 2.0 7.0 0.00 0.00 0.00 63 1016.4
20240225142331 29 170 3.0 9.0 0.00 0.00 0.00 65 1016.4
20240225141857 29 136 4.0 9.0 0.00 0.00 0.00 66 1016.5
20240225141357 29 161 4.0 7.0 0.00 0.00 0.00 67 1016.5
20240225140838 28 134 4.0 7.0 0.00 0.00 0.00 69 1016.5
20240225140342 28 147 3.0 7.0 0.00 0.00 0.00 71 1016.6
20240225135839 28 137 4.0 6.0 0.00 0.00 0.00 72 1016.6
20240225135350 27 128 3.0 6.0 0.00 0.00 0.00 73 1016.6
20240225134829 27 138 4.0 6.0 0.00 0.00 0.00 74 1016.7
20240225134354 26 128 4.0 6.0 0.00 0.00 0.00 77 1016.8
20240225133903 26 139 3.0 5.0 0.00 0.00 0.00 76 1016.8
20240225133348 25 184 2.0 5.0 0.00 0.00 0.00 77 1016.8
20240225132844 25 158 2.0 5.0 0.00 0.00 0.00 78 1016.9
20240225132345 24 189 2.0 5.0 0.00 0.00 0.00 80 1016.9
20240225131843 24 157 2.0 4.0 0.00 0.00 0.00 82 1016.9
20240225131338 23 149 2.0 6.0 0.00 0.00 0.00 83 1016.8
20240225130856 22 153 3.0 6.0 0.00 0.00 0.00 84 1016.8
20240225130336 22 149 3.0 5.0 0.00 0.00 0.00 84 1016.8
20240225125854 21 163 2.0 5.0 0.00 0.00 0.00 85 1016.9
20240225125342 20 145 2.0 5.0 0.00 0.00 0.00 85 1016.9
20240225124843 20 150 0.0 0.0 0.00 0.00 0.00 84 1017.1
20240225124327 19 150 0.0 2.0 0.00 0.00 0.00 84 1017.1
20240225123847 19 150 0.0 3.0 0.00 0.00 0.00 84 1017.0
20240225123335 19 150 1.0 3.0 0.00 0.00 0.00 84 1017.0
20240225122836 18 147 0.0 2.0 0.00 0.00 0.00 84 1016.9
20240225122335 18 147 0.0 4.0 0.00 0.00 0.00 84 1016.9
20240225121833 18 147 1.0 4.0 0.00 0.00 0.00 83 1016.8
20240225121334 18 180 0.0 2.0 0.00 0.00 0.00 83 1016.9
20240225120836 18 180 1.0 2.0 0.00 0.00 0.00 83 1017.0
20240225120336 18 180 2.0 2.0 0.00 0.00 0.00 83 1016.9
20240225115835 18 180 0.0 0.0 0.00 0.00 0.00 83 1016.9
20240225115335 18 180 0.0 2.0 0.00 0.00 0.00 83 1016.9
20240225114840 18 180 0.0 2.0 0.00 0.00 0.00 83 1016.9
20240225114344 18 180 1.0 2.0 0.00 0.00 0.00 82 1016.9
20240225113831 18 180 1.0 3.0 0.00 0.00 0.00 82 1016.9
20240225113348 18 180 1.0 3.0 0.00 0.00 0.00 82 1016.9
20240225112904 18 180 1.0 2.0 0.00 0.00 0.00 82 1016.8
20240225112338 18 180 0.0 0.0 0.00 0.00 0.00 82 1016.8
20240225111839 18 180 0.0 2.0 0.00 0.00 0.00 82 1016.9
20240225111341 18 180 1.0 2.0 0.00 0.00 0.00 82 1016.8
20240225110842 18 180 1.0 2.0 0.00 0.00 0.00 81 1016.7
20240225110424 18 184 1.0 2.0 0.00 0.00 0.00 81 1016.7
20240225105857 18 184 1.0 2.0 0.00 0.00 0.00 80 1016.7
20240225105340 18 192 0.0 0.0 0.00 0.00 0.00 80 1016.7
20240225104844 18 192 0.0 0.0 0.00 0.00 0.00 80 1016.7
20240225104327 18 192 0.0 0.0 0.00 0.00 0.00 80 1016.7
20240225103831 18 192 0.0 0.0 0.00 0.00 0.00 80 1016.8
20240225103332 18 192 0.0 0.0 0.00 0.00 0.00 80 1016.9
20240225102910 18 192 0.0 0.0 0.00 0.00 0.00 80 1016.8
20240225102344 18 192 0.0 2.0 0.00 0.00 0.00 79 1016.8
20240225101841 18 192 0.0 2.0 0.00 0.00 0.00 79 1016.8
20240225101341 18 192 1.0 2.0 0.00 0.00 0.00 79 1016.8
20240225100905 18 192 1.0 2.0 0.00 0.00 0.00 79 1016.8
20240225100334 18 192 0.0 1.0 0.00 0.00 0.00 79 1016.9
20240225095837 18 192 0.0 2.0 0.00 0.00 0.00 79 1016.9
20240225095357 18 192 1.0 2.0 0.00 0.00 0.00 78 1016.9
20240225094829 18 192 1.0 2.0 0.00 0.00 0.00 78 1016.9
20240225094347 18 192 1.0 2.0 0.00 0.00 0.00 78 1016.8
20240225093825 17 192 0.0 1.0 0.00 0.00 0.00 78 1016.8
20240225093330 17 192 0.0 1.0 0.00 0.00 0.00 77 1016.9
20240225092830 18 192 0.0 0.0 0.00 0.00 0.00 77 1016.9
20240225092335 18 192 0.0 0.0 0.00 0.00 0.00 77 1017.0
20240225091829 18 192 0.0 0.0 0.00 0.00 0.00 77 1017.0
20240225091338 18 192 0.0 1.0 0.00 0.00 0.00 77 1017.1
20240225090831 18 192 0.0 2.0 0.00 0.00 0.00 77 1017.1
20240225090345 18 192 1.0 2.0 0.00 0.00 0.00 77 1017.1
20240225085850 17 198 1.0 2.0 0.00 0.00 0.00 77 1017.1
20240225085403 17 198 1.0 2.0 0.00 0.00 0.00 77 1017.2
20240225084844 17 198 1.0 2.0 0.00 0.00 0.00 77 1017.2
20240225084340 17 198 1.0 2.0 0.00 0.00 0.00 77 1017.4
20240225083845 17 198 1.0 2.0 0.00 0.00 0.00 77 1017.5
20240225083331 17 198 0.0 0.0 0.00 0.00 0.00 77 1017.5
20240225082829 17 198 0.0 0.0 0.00 0.00 0.00 77 1017.5
20240225082331 17 198 0.0 2.0 0.00 0.00 0.00 77 1017.6
20240225081913 17 198 0.0 5.0 0.00 0.00 0.00 78 1017.6
20240225081342 17 198 3.0 5.0 0.00 0.00 0.00 78 1017.9
20240225080851 17 200 2.0 4.0 0.00 0.00 0.00 79 1017.7
20240225080346 17 200 2.0 3.0 0.00 0.00 0.00 79 1017.8
20240225075905 17 200 1.0 2.0 0.00 0.00 0.00 79 1017.9
20240225075403 17 200 1.0 2.0 0.00 0.00 0.00 79 1017.8
20240225074846 17 200 1.0 2.0 0.00 0.00 0.00 79 1017.9
20240225074346 17 200 0.0 0.0 0.00 0.00 0.00 79 1017.8
20240225073857 17 200 0.0 0.0 0.00 0.00 0.00 79 1017.7
20240225073338 17 200 0.0 0.0 0.00 0.00 0.00 79 1017.8
20240225072858 17 200 0.0 0.0 0.00 0.00 0.00 79 1017.7
20240225072335 17 200 0.0 0.0 0.00 0.00 0.00 79 1017.7
20240225071830 17 200 0.0 0.0 0.00 0.00 0.00 80 1017.8
20240225071350 17 200 0.0 0.0 0.00 0.00 0.00 80 1017.7
20240225070834 16 200 0.0 0.0 0.00 0.00 0.00 80 1017.7
20240225070331 16 200 0.0 0.0 0.00 0.00 0.00 80 1017.8
20240225065836 16 200 0.0 0.0 0.00 0.00 0.00 80 1017.7
20240225065356 16 200 0.0 0.0 0.00 0.00 0.00 80 1017.7
20240225064836 16 200 0.0 0.0 0.00 0.00 0.00 80 1017.6
20240225064416 16 200 0.0 0.0 0.00 0.00 0.00 80 1017.5
20240225063824 16 200 0.0 0.0 0.00 0.00 0.00 80 1017.5
20240225063347 16 200 0.0 0.0 0.00 0.00 0.00 80 1017.5
20240225062843 16 200 0.0 0.0 0.00 0.00 0.00 80 1017.5
20240225062332 16 200 0.0 0.0 0.00 0.00 0.00 80 1017.4
20240225061839 16 200 0.0 0.0 0.00 0.00 0.00 81 1017.4
20240225061330 16 200 0.0 0.0 0.00 0.00 0.00 80 1017.4
20240225060848 16 200 0.0 0.0 0.00 0.00 0.00 80 1017.4
20240225060347 16 200 0.0 0.0 0.00 0.00 0.00 80 1017.4
20240225055840 16 200 0.0 0.0 0.00 0.00 0.00 80 1017.4
20240225055335 16 200 0.0 0.0 0.00 0.00 0.00 80 1017.4
20240225054854 16 200 0.0 0.0 0.00 0.00 0.00 79 1017.3
20240225054355 16 200 0.0 0.0 0.00 0.00 0.00 80 1017.4
20240225053845 16 200 0.0 0.0 0.00 0.00 0.00 80 1017.4
20240225053328 16 200 0.0 0.0 0.00 0.00 0.00 80 1017.4
20240225052829 16 200 0.0 0.0 0.00 0.00 0.00 79 1017.3
20240225052328 16 200 0.0 0.0 0.00 0.00 0.00 79 1017.3
20240225051836 16 200 0.0 0.0 0.00 0.00 0.00 79 1017.3
20240225051334 16 200 0.0 0.0 0.00 0.00 0.00 79 1017.4
20240225050833 16 200 0.0 0.0 0.00 0.00 0.00 79 1017.4
20240225050350 16 200 0.0 0.0 0.00 0.00 0.00 79 1017.3
20240225045840 16 200 0.0 0.0 0.00 0.00 0.00 78 1017.3
20240225045333 16 200 0.0 0.0 0.00 0.00 0.00 78 1017.3
20240225044832 16 200 0.0 0.0 0.00 0.00 0.00 78 1017.2
20240225044328 16 200 0.0 0.0 0.00 0.00 0.00 78 1017.2
20240225043838 16 200 0.0 0.0 0.00 0.00 0.00 78 1017.3
20240225043339 16 200 0.0 0.0 0.00 0.00 0.00 77 1017.3
20240225042837 16 200 0.0 0.0 0.00 0.00 0.00 78 1017.2
20240225042340 16 200 0.0 0.0 0.00 0.00 0.00 78 1017.2
20240225041901 16 200 0.0 0.0 0.00 0.00 0.00 77 1017.1
20240225041347 16 200 0.0 0.0 0.00 0.00 0.00 77 1017.1
20240225040846 16 200 0.0 0.0 0.00 0.00 0.00 77 1017.0
20240225040336 16 200 0.0 0.0 0.00 0.00 0.00 77 1017.0
20240225035830 16 200 0.0 0.0 0.00 0.00 0.00 77 1017.1
20240225035335 17 200 0.0 0.0 0.00 0.00 0.00 77 1017.0
20240225034852 17 200 0.0 0.0 0.00 0.00 0.00 77 1017.0
20240225034332 17 200 0.0 1.0 0.00 0.00 0.00 77 1017.0
20240225033841 17 200 0.0 2.0 0.00 0.00 0.00 77 1017.0
20240225033333 17 200 1.0 3.0 0.00 0.00 0.00 77 1017.1
20240225032852 17 200 1.0 3.0 0.00 0.00 0.00 77 1017.1
20240225032351 17 200 1.0 4.0 0.00 0.00 0.00 77 1017.0
20240225031839 17 200 2.0 4.0 0.00 0.00 0.00 77 1017.0
20240225031418 17 207 2.0 4.0 0.00 0.00 0.00 78 1017.0
20240225030923 16 207 2.0 4.0 0.00 0.00 0.00 78 1017.0
20240225030329 16 217 2.0 4.0 0.00 0.00 0.00 79 1016.9
20240225025834 16 219 2.0 4.0 0.00 0.00 0.00 79 1016.9
20240225025334 16 264 1.0 3.0 0.00 0.00 0.00 79 1016.8
20240225024855 16 264 1.0 2.0 0.00 0.00 0.00 79 1016.8
20240225024404 16 264 1.0 2.0 0.00 0.00 0.00 79 1016.8
20240225023852 16 264 2.0 3.0 0.00 0.00 0.00 79 1016.9
20240225023331 16 264 1.0 3.0 0.00 0.00 0.00 79 1016.8
20240225022840 16 264 2.0 3.0 0.00 0.00 0.00 79 1016.8
20240225022346 16 5 1.0 2.0 0.00 0.00 0.00 79 1016.7
20240225021825 16 5 1.0 2.0 0.00 0.00 0.00 79 1016.7
20240225021338 16 5 1.0 2.0 0.00 0.00 0.00 79 1016.7
20240225020857 16 5 0.0 0.0 0.00 0.00 0.00 78 1016.7
20240225020333 16 5 0.0 0.0 0.00 0.00 0.00 78 1016.8
20240225015832 16 5 0.0 0.0 0.00 0.00 0.00 78 1016.7
20240225015352 16 5 0.0 0.0 0.00 0.00 0.00 78 1016.7
20240225014823 16 5 0.0 0.0 0.00 0.00 0.00 77 1016.8
20240225014329 16 5 0.0 0.0 0.00 0.00 0.00 77 1016.7
20240225013846 16 5 0.0 0.0 0.00 0.00 0.00 77 1016.7
20240225013327 16 5 0.0 0.0 0.00 0.00 0.00 76 1016.6
20240225012829 16 5 0.0 0.0 0.00 0.00 0.00 76 1016.7
20240225012347 16 5 0.0 0.0 0.00 0.00 0.00 75 1016.6
20240225011828 16 5 0.0 0.0 0.00 0.00 0.00 75 1016.5
20240225011329 16 5 0.0 0.0 0.00 0.00 0.00 75 1016.5
20240225010838 16 5 0.0 0.0 0.00 0.00 0.00 74 1016.4
20240225010358 17 5 0.0 0.0 0.00 0.00 0.00 73 1016.5
20240225005855 17 5 0.0 0.0 0.00 0.00 0.00 73 1016.6
20240225005338 17 5 0.0 0.0 0.00 0.00 0.00 73 1016.6
20240225004840 17 5 0.0 0.0 0.00 0.00 0.00 72 1016.6
20240225004346 17 5 0.0 0.0 0.00 0.00 0.00 71 1016.6
20240225003843 17 5 0.0 0.0 0.00 0.00 0.00 71 1016.7
20240225003330 17 5 0.0 0.0 0.00 0.00 0.00 71 1016.7
20240225002904 17 5 0.0 0.0 0.00 0.00 0.00 71 1016.7
20240225002402 17 5 0.0 0.0 0.00 0.00 0.00 70 1016.7
20240225001839 17 5 0.0 0.0 0.00 0.00 0.00 70 1016.6
20240225001356 17 5 0.0 0.0 0.00 0.00 0.00 70 1016.6
20240225000839 17 5 0.0 1.0 0.00 0.00 0.00 70 1016.6
20240225000340 17 5 0.0 2.0 0.00 0.00 0.00 70 1016.5
20240224235915 17 5 1.0 2.0 0.00 0.00 0.00 70 1016.5
20240224235336 17 5 0.0 2.0 0.00 0.00 0.00 70 1016.4
20240224234833 17 5 1.0 3.0 0.00 0.00 0.00 70 1016.4
20240224234332 17 5 2.0 4.0 0.00 0.00 0.00 70 1016.3
20240224233844 18 5 2.0 5.0 0.00 0.00 0.00 69 1016.3
20240224233331 18 355 4.0 5.0 0.00 0.00 0.00 69 1016.3
20240224232857 18 335 3.0 4.0 0.00 0.00 0.00 69 1016.3
20240224232333 18 340 3.0 4.0 0.00 0.00 0.00 68 1016.3
20240224231849 18 328 2.0 4.0 0.00 0.00 0.00 68 1016.2
20240224231407 18 327 2.0 5.0 0.00 0.00 0.00 67 1016.1